BWA226 TTPP-TNCM
Flight info
| Callsign | BWA226 |
|---|---|
| Flight time | 1h 8m |
| Altitude | 3300 |
| Route | EMKIS UM402 LIMBO DCT SORRL UL329 ZPATA L329 PJM |
| Aircraft | B738/M-SDE2E3FGHIRWXY/LB1 |
Departure
| Time | 2026-05-01 13:44 |
|---|---|
| Airport | Piarco International Airport (TTPP) |
Arrival
| Time | 2026-05-01 14:52 |
|---|---|
| Airport | Princess Juliana International Airport (TNCM) |
| Time | Latitude | Longitude | Altitude | Speed | Heading |
|---|---|---|---|---|---|
| 2026-05-01 13:42 | 10.59529 | -61.35133 | 58 ft | 0 kts | 90° |
| 2026-05-01 13:42 | 10.59529 | -61.35130 | 58 ft | 2 kts | 90° |
| 2026-05-01 13:43 | 10.59528 | -61.35027 | 58 ft | 33 kts | 91° |
| 2026-05-01 13:43 | 10.59531 | -61.34541 | 64 ft | 102 kts | 90° |
| 2026-05-01 13:43 | 10.59535 | -61.33605 | 72 ft | 161 kts | 91° |
| 2026-05-01 13:43 | 10.59536 | -61.32365 | 386 ft | 182 kts | 91° |
| 2026-05-01 13:44 | 10.59549 | -61.31136 | 1304 ft | 172 kts | 89° |
| 2026-05-01 13:44 | 10.59550 | -61.29949 | 2000 ft | 176 kts | 90° |
| 2026-05-01 13:44 | 10.59700 | -61.28645 | 2323 ft | 188 kts | 68° |
| 2026-05-01 13:44 | 10.60531 | -61.27578 | 2912 ft | 206 kts | 37° |
| 2026-05-01 13:45 | 10.61923 | -61.27030 | 3397 ft | 223 kts | 10° |
| 2026-05-01 13:45 | 10.63606 | -61.27121 | 3547 ft | 262 kts | 351° |
| 2026-05-01 13:45 | 10.65429 | -61.27566 | 4219 ft | 277 kts | 348° |
| 2026-05-01 13:45 | 10.67258 | -61.28058 | 5322 ft | 272 kts | 341° |
| 2026-05-01 13:46 | 10.69019 | -61.28711 | 6074 ft | 275 kts | 346° |
| 2026-05-01 13:46 | 10.70921 | -61.29089 | 6717 ft | 280 kts | 353° |
| 2026-05-01 13:46 | 10.72853 | -61.29336 | 7439 ft | 283 kts | 354° |
| 2026-05-01 13:46 | 10.74842 | -61.29562 | 8134 ft | 287 kts | 354° |
| 2026-05-01 13:47 | 10.76765 | -61.30026 | 8758 ft | 292 kts | 334° |
| 2026-05-01 13:47 | 10.78486 | -61.31153 | 9447 ft | 294 kts | 323° |
| 2026-05-01 13:47 | 10.80096 | -61.32460 | 10047 ft | 299 kts | 322° |
| 2026-05-01 13:47 | 10.81800 | -61.33710 | 10491 ft | 309 kts | 329° |
| 2026-05-01 13:48 | 10.83800 | -61.34720 | 10799 ft | 324 kts | 340° |
| 2026-05-01 13:48 | 10.86032 | -61.35341 | 11068 ft | 339 kts | 350° |
| 2026-05-01 13:48 | 10.88431 | -61.35672 | 11304 ft | 355 kts | 355° |
| 2026-05-01 13:48 | 10.90935 | -61.35871 | 11517 ft | 370 kts | 356° |
| 2026-05-01 13:49 | 10.93582 | -61.36039 | 11894 ft | 380 kts | 357° |
| 2026-05-01 13:49 | 10.96234 | -61.36211 | 12451 ft | 383 kts | 356° |
| 2026-05-01 13:49 | 10.98887 | -61.36398 | 13021 ft | 386 kts | 356° |
| 2026-05-01 13:49 | 11.01592 | -61.36603 | 13558 ft | 389 kts | 356° |
| 2026-05-01 13:50 | 11.04307 | -61.36819 | 14094 ft | 392 kts | 356° |
| 2026-05-01 13:50 | 11.07058 | -61.37044 | 14619 ft | 396 kts | 355° |
| 2026-05-01 13:50 | 11.09827 | -61.37273 | 15112 ft | 400 kts | 355° |
| 2026-05-01 13:50 | 11.12589 | -61.37503 | 15611 ft | 403 kts | 355° |
| 2026-05-01 13:51 | 11.15410 | -61.37737 | 16072 ft | 407 kts | 355° |
| 2026-05-01 13:51 | 11.18237 | -61.37971 | 16556 ft | 410 kts | 355° |
| 2026-05-01 13:51 | 11.21098 | -61.38208 | 17028 ft | 413 kts | 355° |
| 2026-05-01 13:51 | 11.23992 | -61.38448 | 17448 ft | 417 kts | 355° |
| 2026-05-01 13:52 | 11.26910 | -61.38689 | 17957 ft | 419 kts | 355° |
| 2026-05-01 13:52 | 11.29794 | -61.38928 | 18449 ft | 420 kts | 355° |
| 2026-05-01 13:52 | 11.32738 | -61.39172 | 18869 ft | 424 kts | 355° |
| 2026-05-01 13:52 | 11.35679 | -61.39415 | 19377 ft | 425 kts | 355° |
| 2026-05-01 13:53 | 11.38641 | -61.39661 | 19796 ft | 428 kts | 355° |
| 2026-05-01 13:53 | 11.44629 | -61.40155 | 20691 ft | 431 kts | 355° |
| 2026-05-01 13:53 | 11.47618 | -61.40402 | 21102 ft | 434 kts | 354° |
| 2026-05-01 13:54 | 11.50652 | -61.40653 | 21543 ft | 435 kts | 355° |
| 2026-05-01 13:54 | 11.53691 | -61.40904 | 21959 ft | 437 kts | 354° |
| 2026-05-01 13:54 | 11.56715 | -61.41154 | 22359 ft | 439 kts | 354° |
| 2026-05-01 13:54 | 11.59779 | -61.41408 | 22719 ft | 442 kts | 354° |
| 2026-05-01 13:55 | 11.62890 | -61.41666 | 23069 ft | 445 kts | 354° |
| 2026-05-01 13:55 | 11.65954 | -61.41920 | 23404 ft | 448 kts | 354° |
| 2026-05-01 13:55 | 11.69087 | -61.42179 | 23731 ft | 452 kts | 354° |
| 2026-05-01 13:55 | 11.72246 | -61.42441 | 24086 ft | 455 kts | 354° |
| 2026-05-01 13:56 | 11.75444 | -61.42706 | 24399 ft | 458 kts | 354° |
| 2026-05-01 13:56 | 11.78614 | -61.42968 | 24773 ft | 460 kts | 354° |
| 2026-05-01 13:56 | 11.81840 | -61.43235 | 25079 ft | 464 kts | 354° |
| 2026-05-01 13:56 | 11.85086 | -61.43505 | 25427 ft | 466 kts | 354° |
| 2026-05-01 13:57 | 11.88316 | -61.43773 | 25746 ft | 469 kts | 354° |
| 2026-05-01 13:57 | 11.91573 | -61.44043 | 26046 ft | 472 kts | 355° |
| 2026-05-01 13:57 | 11.94889 | -61.44318 | 26310 ft | 477 kts | 355° |
| 2026-05-01 13:57 | 11.98226 | -61.44597 | 26615 ft | 479 kts | 355° |
| 2026-05-01 13:58 | 12.01560 | -61.44874 | 26933 ft | 482 kts | 354° |
| 2026-05-01 13:58 | 12.04902 | -61.45153 | 27177 ft | 486 kts | 355° |
| 2026-05-01 13:58 | 12.08292 | -61.45435 | 27525 ft | 487 kts | 355° |
| 2026-05-01 13:58 | 12.11693 | -61.45718 | 27759 ft | 491 kts | 354° |
| 2026-05-01 13:59 | 12.15142 | -61.46005 | 28054 ft | 493 kts | 355° |
| 2026-05-01 13:59 | 12.18543 | -61.46289 | 28355 ft | 495 kts | 354° |
| 2026-05-01 13:59 | 12.22001 | -61.46577 | 28758 ft | 494 kts | 355° |
| 2026-05-01 13:59 | 12.25437 | -61.46863 | 29255 ft | 491 kts | 354° |
| 2026-05-01 14:00 | 12.28794 | -61.47142 | 29834 ft | 486 kts | 354° |
| 2026-05-01 14:00 | 12.32197 | -61.47426 | 30312 ft | 483 kts | 354° |
| 2026-05-01 14:00 | 12.35508 | -61.47702 | 30756 ft | 480 kts | 353° |
| 2026-05-01 14:00 | 12.38825 | -61.47977 | 31187 ft | 477 kts | 353° |
| 2026-05-01 14:01 | 12.42133 | -61.48252 | 31594 ft | 475 kts | 353° |
| 2026-05-01 14:01 | 12.45458 | -61.48528 | 31994 ft | 472 kts | 353° |
| 2026-05-01 14:01 | 12.48713 | -61.48799 | 32376 ft | 470 kts | 353° |
| 2026-05-01 14:01 | 12.51983 | -61.49072 | 32758 ft | 467 kts | 353° |
| 2026-05-01 14:02 | 12.55194 | -61.49338 | 32981 ft | 468 kts | 352° |
| 2026-05-01 14:02 | 12.58457 | -61.49611 | 32985 ft | 468 kts | 352° |
| 2026-05-01 14:02 | 12.64953 | -61.50157 | 32988 ft | 465 kts | 352° |
| 2026-05-01 14:03 | 12.71396 | -61.50698 | 32988 ft | 465 kts | 352° |
| 2026-05-01 14:03 | 12.77876 | -61.51239 | 32987 ft | 466 kts | 353° |
| 2026-05-01 14:04 | 12.84374 | -61.51784 | 32987 ft | 470 kts | 352° |
| 2026-05-01 14:04 | 12.90970 | -61.52337 | 32985 ft | 470 kts | 352° |
| 2026-05-01 14:05 | 12.97436 | -61.52874 | 32988 ft | 468 kts | 352° |
| 2026-05-01 14:05 | 13.04013 | -61.53426 | 32989 ft | 475 kts | 352° |
| 2026-05-01 14:06 | 13.10632 | -61.53984 | 32987 ft | 479 kts | 352° |
| 2026-05-01 14:06 | 13.17302 | -61.54542 | 32992 ft | 480 kts | 352° |
| 2026-05-01 14:07 | 13.23995 | -61.55102 | 32988 ft | 482 kts | 352° |
| 2026-05-01 14:08 | 13.34072 | -61.55950 | 32989 ft | 484 kts | 352° |
| 2026-05-01 14:08 | 13.40792 | -61.56516 | 32986 ft | 482 kts | 352° |
| 2026-05-01 14:09 | 13.47485 | -61.57077 | 32991 ft | 480 kts | 352° |
| 2026-05-01 14:09 | 13.54142 | -61.57638 | 32990 ft | 481 kts | 352° |
| 2026-05-01 14:10 | 13.60794 | -61.58191 | 32989 ft | 468 kts | 352° |
| 2026-05-01 14:10 | 13.67321 | -61.58639 | 32988 ft | 471 kts | 353° |
| 2026-05-01 14:11 | 13.73900 | -61.59019 | 32991 ft | 473 kts | 353° |
| 2026-05-01 14:11 | 13.83763 | -61.59587 | 32990 ft | 475 kts | 353° |
| 2026-05-01 14:12 | 13.90369 | -61.59983 | 32989 ft | 472 kts | 353° |
| 2026-05-01 14:12 | 13.96856 | -61.60372 | 32988 ft | 461 kts | 353° |
| 2026-05-01 14:13 | 14.02253 | -61.60702 | 32988 ft | 467 kts | 352° |
| 2026-05-01 14:13 | 14.09846 | -61.61171 | 32991 ft | 469 kts | 352° |
| 2026-05-01 14:14 | 14.16332 | -61.61567 | 32991 ft | 460 kts | 352° |
| 2026-05-01 14:14 | 14.22643 | -61.62444 | 32988 ft | 461 kts | 344° |
| 2026-05-01 14:15 | 14.28904 | -61.64080 | 32991 ft | 458 kts | 340° |
| 2026-05-01 14:15 | 14.35042 | -61.65916 | 32988 ft | 463 kts | 339° |
| 2026-05-01 14:16 | 14.41303 | -61.67802 | 32988 ft | 465 kts | 339° |
| 2026-05-01 14:16 | 14.47511 | -61.69642 | 32990 ft | 469 kts | 340° |
| 2026-05-01 14:17 | 14.53841 | -61.71501 | 32989 ft | 474 kts | 340° |
| 2026-05-01 14:17 | 14.60210 | -61.73364 | 32992 ft | 475 kts | 340° |
| 2026-05-01 14:18 | 14.66591 | -61.75229 | 32987 ft | 477 kts | 340° |
| 2026-05-01 14:18 | 14.71867 | -61.76763 | 32991 ft | 474 kts | 340° |
| 2026-05-01 14:19 | 14.79334 | -61.78941 | 32989 ft | 478 kts | 340° |
| 2026-05-01 14:19 | 14.85774 | -61.80822 | 32991 ft | 477 kts | 340° |
| 2026-05-01 14:20 | 14.95355 | -61.83629 | 32989 ft | 470 kts | 340° |
| 2026-05-01 14:21 | 15.01517 | -61.85422 | 32988 ft | 455 kts | 340° |
| 2026-05-01 14:21 | 15.07675 | -61.87226 | 32989 ft | 460 kts | 340° |
| 2026-05-01 14:22 | 15.16909 | -61.89938 | 32989 ft | 455 kts | 340° |
| 2026-05-01 14:22 | 15.23002 | -61.91770 | 32990 ft | 456 kts | 337° |
| 2026-05-01 14:23 | 15.28965 | -61.94029 | 32989 ft | 454 kts | 334° |
| 2026-05-01 14:23 | 15.34821 | -61.96476 | 32988 ft | 453 kts | 333° |
| 2026-05-01 14:24 | 15.40692 | -61.98921 | 32989 ft | 457 kts | 334° |
| 2026-05-01 14:24 | 15.46571 | -62.01323 | 32989 ft | 451 kts | 334° |
| 2026-05-01 14:25 | 15.52415 | -62.03692 | 32989 ft | 453 kts | 334° |
| 2026-05-01 14:25 | 15.58301 | -62.06068 | 32992 ft | 451 kts | 334° |
| 2026-05-01 14:26 | 15.67094 | -62.09626 | 32994 ft | 450 kts | 334° |
| 2026-05-01 14:27 | 15.72974 | -62.12014 | 32995 ft | 456 kts | 334° |
| 2026-05-01 14:27 | 15.78847 | -62.14391 | 32998 ft | 450 kts | 334° |
| 2026-05-01 14:28 | 15.87612 | -62.17940 | 33007 ft | 451 kts | 334° |
| 2026-05-01 14:28 | 15.93480 | -62.20320 | 33008 ft | 454 kts | 334° |
| 2026-05-01 14:29 | 15.99399 | -62.22732 | 33008 ft | 462 kts | 334° |
| 2026-05-01 14:30 | 16.11500 | -62.27649 | 33009 ft | 467 kts | 334° |
| 2026-05-01 14:31 | 16.20587 | -62.31340 | 33008 ft | 467 kts | 334° |
| 2026-05-01 14:31 | 16.26666 | -62.33816 | 33005 ft | 468 kts | 334° |
| 2026-05-01 14:32 | 16.32789 | -62.36316 | 33005 ft | 467 kts | 334° |
| 2026-05-01 14:32 | 16.38732 | -62.38733 | 33002 ft | 451 kts | 334° |
| 2026-05-01 14:33 | 16.44573 | -62.41112 | 33005 ft | 454 kts | 334° |
| 2026-05-01 14:33 | 16.50520 | -62.43545 | 33000 ft | 463 kts | 334° |
| 2026-05-01 14:34 | 16.56500 | -62.45990 | 33005 ft | 463 kts | 334° |
| 2026-05-01 14:34 | 16.62550 | -62.48463 | 33005 ft | 464 kts | 334° |
| 2026-05-01 14:35 | 16.68542 | -62.50914 | 33005 ft | 466 kts | 334° |
| 2026-05-01 14:35 | 16.74585 | -62.53387 | 33005 ft | 465 kts | 333° |
| 2026-05-01 14:36 | 16.80628 | -62.55857 | 33005 ft | 466 kts | 334° |
| 2026-05-01 14:36 | 16.86642 | -62.58317 | 33006 ft | 464 kts | 334° |
| 2026-05-01 14:37 | 16.92679 | -62.60792 | 32999 ft | 464 kts | 334° |
| 2026-05-01 14:37 | 16.95696 | -62.62029 | 32896 ft | 457 kts | 333° |
| 2026-05-01 14:37 | 16.98588 | -62.63209 | 32603 ft | 448 kts | 333° |
| 2026-05-01 14:37 | 17.01490 | -62.64395 | 31930 ft | 449 kts | 333° |
| 2026-05-01 14:38 | 17.04439 | -62.65607 | 30931 ft | 456 kts | 333° |
| 2026-05-01 14:38 | 17.07415 | -62.66837 | 29955 ft | 462 kts | 333° |
| 2026-05-01 14:38 | 17.10399 | -62.68075 | 29003 ft | 467 kts | 333° |
| 2026-05-01 14:38 | 17.13418 | -62.69327 | 28132 ft | 470 kts | 333° |
| 2026-05-01 14:39 | 17.16495 | -62.70598 | 27399 ft | 469 kts | 333° |
| 2026-05-01 14:39 | 17.19495 | -62.71830 | 26570 ft | 471 kts | 334° |
| 2026-05-01 14:39 | 17.22577 | -62.73096 | 25605 ft | 475 kts | 334° |
| 2026-05-01 14:39 | 17.25652 | -62.74360 | 24648 ft | 478 kts | 334° |
| 2026-05-01 14:40 | 17.28760 | -62.75638 | 23691 ft | 481 kts | 334° |
| 2026-05-01 14:40 | 17.31811 | -62.76892 | 23176 ft | 464 kts | 335° |
| 2026-05-01 14:40 | 17.34778 | -62.78106 | 22478 ft | 451 kts | 335° |
| 2026-05-01 14:40 | 17.37679 | -62.79295 | 21680 ft | 446 kts | 335° |
| 2026-05-01 14:41 | 17.40564 | -62.80481 | 20888 ft | 448 kts | 335° |
| 2026-05-01 14:41 | 17.43440 | -62.81722 | 19794 ft | 446 kts | 332° |
| 2026-05-01 14:41 | 17.46141 | -62.83191 | 18533 ft | 442 kts | 326° |
| 2026-05-01 14:41 | 17.48681 | -62.84972 | 17445 ft | 434 kts | 320° |
| 2026-05-01 14:42 | 17.50994 | -62.86939 | 16463 ft | 425 kts | 316° |
| 2026-05-01 14:42 | 17.53149 | -62.88984 | 15495 ft | 417 kts | 315° |
| 2026-05-01 14:42 | 17.55205 | -62.91053 | 14539 ft | 410 kts | 314° |
| 2026-05-01 14:42 | 17.57230 | -62.93138 | 13588 ft | 404 kts | 314° |
| 2026-05-01 14:43 | 17.59196 | -62.95169 | 12610 ft | 398 kts | 314° |
| 2026-05-01 14:43 | 17.61144 | -62.97170 | 11813 ft | 388 kts | 315° |
| 2026-05-01 14:43 | 17.63057 | -62.99119 | 11168 ft | 375 kts | 315° |
| 2026-05-01 14:43 | 17.64898 | -63.00990 | 10579 ft | 362 kts | 316° |
| 2026-05-01 14:44 | 17.66672 | -63.02790 | 10088 ft | 351 kts | 316° |
| 2026-05-01 14:44 | 17.70146 | -63.06300 | 9137 ft | 343 kts | 317° |
| 2026-05-01 14:44 | 17.71858 | -63.08028 | 8659 ft | 342 kts | 317° |
| 2026-05-01 14:45 | 17.73575 | -63.09765 | 8180 ft | 341 kts | 317° |
| 2026-05-01 14:45 | 17.76972 | -63.13205 | 7220 ft | 339 kts | 317° |
| 2026-05-01 14:45 | 17.78664 | -63.14913 | 6745 ft | 338 kts | 317° |
| 2026-05-01 14:46 | 17.80356 | -63.16621 | 6267 ft | 339 kts | 318° |
| 2026-05-01 14:46 | 17.83700 | -63.20002 | 5306 ft | 327 kts | 318° |
| 2026-05-01 14:46 | 17.85328 | -63.21653 | 4828 ft | 325 kts | 317° |
| 2026-05-01 14:47 | 17.86946 | -63.23293 | 4410 ft | 324 kts | 317° |
| 2026-05-01 14:47 | 17.88570 | -63.24936 | 3978 ft | 323 kts | 317° |
| 2026-05-01 14:47 | 17.90206 | -63.26555 | 3541 ft | 319 kts | 323° |
| 2026-05-01 14:48 | 17.94212 | -63.28154 | 2670 ft | 300 kts | 353° |
| 2026-05-01 14:48 | 17.96246 | -63.28475 | 2234 ft | 290 kts | 356° |
| 2026-05-01 14:48 | 17.99963 | -63.27904 | 1942 ft | 256 kts | 30° |
| 2026-05-01 14:49 | 18.01951 | -63.25375 | 1956 ft | 211 kts | 75° |
| 2026-05-01 14:49 | 18.02470 | -63.22573 | 1981 ft | 185 kts | 83° |
| 2026-05-01 14:50 | 18.02763 | -63.20452 | 1883 ft | 165 kts | 83° |
| 2026-05-01 14:50 | 18.03149 | -63.17912 | 1325 ft | 151 kts | 83° |
| 2026-05-01 14:51 | 18.03304 | -63.16831 | 1137 ft | 149 kts | 83° |
| 2026-05-01 14:51 | 18.03571 | -63.14662 | 569 ft | 152 kts | 85° |
| 2026-05-01 14:52 | 18.03872 | -63.12465 | 154 ft | 153 kts | 83° |
| 2026-05-01 14:52 | 18.04025 | -63.11378 | 21 ft | 141 kts | 84° |
| 2026-05-01 14:52 | 18.04184 | -63.10262 | 17 ft | 21 kts | 81° |
| 2026-05-01 14:53 | 18.04193 | -63.10198 | 16 ft | 5 kts | 81° |
| 2026-05-01 14:53 | 18.04206 | -63.10179 | 16 ft | 1 kts | 56° |
| 2026-05-01 14:53 | 18.04201 | -63.10175 | 16 ft | 1 kts | 201° |
| 2026-05-01 14:53 | 18.04192 | -63.10224 | 16 ft | 10 kts | 262° |
| 2026-05-01 14:54 | 18.04171 | -63.10362 | 19 ft | 31 kts | 259° |
| 2026-05-01 14:54 | 18.04124 | -63.10644 | 16 ft | 41 kts | 262° |
| 2026-05-01 14:54 | 18.04078 | -63.10963 | 16 ft | 51 kts | 261° |
| 2026-05-01 14:54 | 18.04047 | -63.11235 | 19 ft | 22 kts | 267° |
| 2026-05-01 14:55 | 18.04106 | -63.11290 | 19 ft | 9 kts | 350° |
| 2026-05-01 14:55 | 18.04183 | -63.11303 | 19 ft | 12 kts | 351° |
| 2026-05-01 14:55 | 18.04242 | -63.11344 | 20 ft | 7 kts | 327° |
| 2026-05-01 14:55 | 18.04292 | -63.11356 | 22 ft | 10 kts | 353° |
| 2026-05-01 14:56 | 18.04330 | -63.11361 | 22 ft | 0 kts | 352° |